sensor_id;sensor_type;location;lat;lon;timestamp;P1;durP1;ratioP1;P2;durP2;ratioP2
72156;SDS011;60035;52.122;5.406;2024-02-21T00:01:49;13.98;;;3.42;;
72156;SDS011;60035;52.122;5.406;2024-02-21T00:04:20;11.68;;;3.60;;
72156;SDS011;60035;52.122;5.406;2024-02-21T00:06:54;12.68;;;2.80;;
72156;SDS011;60035;52.122;5.406;2024-02-21T00:09:26;13.23;;;2.97;;
72156;SDS011;60035;52.122;5.406;2024-02-21T00:11:57;7.95;;;2.83;;
72156;SDS011;60035;52.122;5.406;2024-02-21T00:14:30;10.48;;;3.08;;
72156;SDS011;60035;52.122;5.406;2024-02-21T00:17:01;10.73;;;2.88;;
72156;SDS011;60035;52.122;5.406;2024-02-21T00:19:33;11.25;;;3.47;;
72156;SDS011;60035;52.122;5.406;2024-02-21T00:22:08;12.88;;;3.83;;
72156;SDS011;60035;52.122;5.406;2024-02-21T00:24:39;9.02;;;2.33;;
72156;SDS011;60035;52.122;5.406;2024-02-21T00:27:10;10.98;;;2.92;;
72156;SDS011;60035;52.122;5.406;2024-02-21T00:29:42;9.77;;;2.45;;
72156;SDS011;60035;52.122;5.406;2024-02-21T00:32:13;8.38;;;2.85;;
72156;SDS011;60035;52.122;5.406;2024-02-21T00:34:45;12.90;;;3.10;;
72156;SDS011;60035;52.122;5.406;2024-02-21T00:37:18;10.35;;;2.80;;
72156;SDS011;60035;52.122;5.406;2024-02-21T00:39:50;10.55;;;2.90;;
72156;SDS011;60035;52.122;5.406;2024-02-21T00:42:21;11.20;;;2.97;;
72156;SDS011;60035;52.122;5.406;2024-02-21T00:44:53;9.93;;;2.15;;
72156;SDS011;60035;52.122;5.406;2024-02-21T00:47:24;10.30;;;2.67;;
72156;SDS011;60035;52.122;5.406;2024-02-21T00:49:57;8.80;;;2.20;;
72156;SDS011;60035;52.122;5.406;2024-02-21T00:52:33;10.57;;;2.85;;
72156;SDS011;60035;52.122;5.406;2024-02-21T00:55:05;8.57;;;2.40;;
72156;SDS011;60035;52.122;5.406;2024-02-21T00:57:37;11.95;;;2.65;;
72156;SDS011;60035;52.122;5.406;2024-02-21T01:00:09;13.48;;;2.95;;
72156;SDS011;60035;52.122;5.406;2024-02-21T01:02:41;11.18;;;2.72;;
72156;SDS011;60035;52.122;5.406;2024-02-21T01:05:14;12.32;;;2.45;;
72156;SDS011;60035;52.122;5.406;2024-02-21T01:07:49;10.93;;;2.40;;
72156;SDS011;60035;52.122;5.406;2024-02-21T01:10:20;13.07;;;3.10;;
72156;SDS011;60035;52.122;5.406;2024-02-21T01:12:52;13.15;;;2.83;;
72156;SDS011;60035;52.122;5.406;2024-02-21T01:15:23;8.13;;;2.53;;
72156;SDS011;60035;52.122;5.406;2024-02-21T01:17:55;11.48;;;2.45;;
72156;SDS011;60035;52.122;5.406;2024-02-21T01:20:26;10.90;;;2.60;;
72156;SDS011;60035;52.122;5.406;2024-02-21T01:23:00;11.85;;;3.22;;
72156;SDS011;60035;52.122;5.406;2024-02-21T01:25:32;12.32;;;3.28;;
72156;SDS011;60035;52.122;5.406;2024-02-21T01:28:03;8.98;;;2.75;;
72156;SDS011;60035;52.122;5.406;2024-02-21T01:30:35;11.23;;;3.20;;
72156;SDS011;60035;52.122;5.406;2024-02-21T01:33:07;8.70;;;2.90;;
72156;SDS011;60035;52.122;5.406;2024-02-21T01:35:38;7.38;;;2.78;;
72156;SDS011;60035;52.122;5.406;2024-02-21T01:38:12;13.55;;;3.53;;
72156;SDS011;60035;52.122;5.406;2024-02-21T01:40:44;12.75;;;3.10;;
72156;SDS011;60035;52.122;5.406;2024-02-21T01:43:16;10.82;;;3.20;;
72156;SDS011;60035;52.122;5.406;2024-02-21T01:45:49;13.50;;;3.50;;
72156;SDS011;60035;52.122;5.406;2024-02-21T01:48:23;13.85;;;3.45;;
72156;SDS011;60035;52.122;5.406;2024-02-21T01:50:56;13.05;;;3.78;;
72156;SDS011;60035;52.122;5.406;2024-02-21T01:53:32;13.68;;;3.65;;
72156;SDS011;60035;52.122;5.406;2024-02-21T01:56:08;8.70;;;3.42;;
72156;SDS011;60035;52.122;5.406;2024-02-21T01:58:40;11.00;;;3.58;;
72156;SDS011;60035;52.122;5.406;2024-02-21T02:01:14;10.55;;;3.28;;
72156;SDS011;60035;52.122;5.406;2024-02-21T02:03:48;9.45;;;3.13;;
72156;SDS011;60035;52.122;5.406;2024-02-21T02:06:20;11.52;;;3.60;;
72156;SDS011;60035;52.122;5.406;2024-02-21T02:08:54;10.52;;;3.45;;
72156;SDS011;60035;52.122;5.406;2024-02-21T02:11:26;11.20;;;3.05;;
72156;SDS011;60035;52.122;5.406;2024-02-21T02:13:58;14.95;;;4.07;;
72156;SDS011;60035;52.122;5.406;2024-02-21T02:16:30;12.50;;;3.65;;
72156;SDS011;60035;52.122;5.406;2024-02-21T02:19:01;11.43;;;3.67;;
72156;SDS011;60035;52.122;5.406;2024-02-21T02:21:35;10.57;;;3.58;;
72156;SDS011;60035;52.122;5.406;2024-02-21T02:24:15;11.93;;;3.25;;
72156;SDS011;60035;52.122;5.406;2024-02-21T02:26:48;11.95;;;3.90;;
72156;SDS011;60035;52.122;5.406;2024-02-21T02:29:19;12.20;;;3.38;;
72156;SDS011;60035;52.122;5.406;2024-02-21T02:31:50;10.40;;;3.55;;
72156;SDS011;60035;52.122;5.406;2024-02-21T02:34:22;13.77;;;3.95;;
72156;SDS011;60035;52.122;5.406;2024-02-21T02:36:53;10.32;;;3.90;;
72156;SDS011;60035;52.122;5.406;2024-02-21T02:39:27;16.20;;;4.55;;
72156;SDS011;60035;52.122;5.406;2024-02-21T02:41:59;10.88;;;3.45;;
72156;SDS011;60035;52.122;5.406;2024-02-21T02:44:30;14.23;;;4.95;;
72156;SDS011;60035;52.122;5.406;2024-02-21T02:47:01;10.25;;;3.65;;
72156;SDS011;60035;52.122;5.406;2024-02-21T02:49:33;12.65;;;3.85;;
72156;SDS011;60035;52.122;5.406;2024-02-21T02:52:05;12.88;;;4.00;;
72156;SDS011;60035;52.122;5.406;2024-02-21T02:54:39;10.75;;;3.90;;
72156;SDS011;60035;52.122;5.406;2024-02-21T02:57:10;11.18;;;3.33;;
72156;SDS011;60035;52.122;5.406;2024-02-21T02:59:41;11.88;;;4.07;;
72156;SDS011;60035;52.122;5.406;2024-02-21T03:02:13;9.38;;;2.88;;
72156;SDS011;60035;52.122;5.406;2024-02-21T03:04:44;14.05;;;3.67;;
72156;SDS011;60035;52.122;5.406;2024-02-21T03:07:16;12.10;;;3.80;;
72156;SDS011;60035;52.122;5.406;2024-02-21T03:09:50;10.80;;;3.65;;
72156;SDS011;60035;52.122;5.406;2024-02-21T03:12:22;11.27;;;3.22;;
72156;SDS011;60035;52.122;5.406;2024-02-21T03:14:55;14.55;;;4.10;;
72156;SDS011;60035;52.122;5.406;2024-02-21T03:17:26;10.95;;;3.50;;
72156;SDS011;60035;52.122;5.406;2024-02-21T03:19:57;10.57;;;3.45;;
72156;SDS011;60035;52.122;5.406;2024-02-21T03:22:33;16.75;;;3.50;;
72156;SDS011;60035;52.122;5.406;2024-02-21T03:25:07;15.23;;;3.47;;
72156;SDS011;60035;52.122;5.406;2024-02-21T03:27:41;10.80;;;3.83;;
72156;SDS011;60035;52.122;5.406;2024-02-21T03:30:12;10.45;;;3.13;;
72156;SDS011;60035;52.122;5.406;2024-02-21T03:32:44;8.75;;;3.60;;
72156;SDS011;60035;52.122;5.406;2024-02-21T03:35:15;15.30;;;4.10;;
72156;SDS011;60035;52.122;5.406;2024-02-21T03:37:47;15.43;;;3.85;;
72156;SDS011;60035;52.122;5.406;2024-02-21T03:40:21;14.95;;;4.28;;
72156;SDS011;60035;52.122;5.406;2024-02-21T03:42:54;11.32;;;3.67;;
72156;SDS011;60035;52.122;5.406;2024-02-21T03:45:25;11.52;;;3.28;;
72156;SDS011;60035;52.122;5.406;2024-02-21T03:47:56;14.65;;;4.25;;
72156;SDS011;60035;52.122;5.406;2024-02-21T03:50:28;12.18;;;4.35;;
72156;SDS011;60035;52.122;5.406;2024-02-21T03:53:00;12.45;;;3.58;;
72156;SDS011;60035;52.122;5.406;2024-02-21T03:55:34;12.82;;;3.95;;
72156;SDS011;60035;52.122;5.406;2024-02-21T03:58:05;12.73;;;3.22;;
72156;SDS011;60035;52.122;5.406;2024-02-21T04:00:36;12.25;;;3.60;;
72156;SDS011;60035;52.122;5.406;2024-02-21T04:03:09;12.45;;;3.30;;
72156;SDS011;60035;52.122;5.406;2024-02-21T04:05:40;13.80;;;3.35;;
72156;SDS011;60035;52.122;5.406;2024-02-21T04:08:11;11.52;;;3.92;;
72156;SDS011;60035;52.122;5.406;2024-02-21T04:10:45;9.15;;;3.72;;
72156;SDS011;60035;52.122;5.406;2024-02-21T04:13:17;9.45;;;3.00;;
72156;SDS011;60035;52.122;5.406;2024-02-21T04:15:50;12.00;;;3.40;;
72156;SDS011;60035;52.122;5.406;2024-02-21T04:18:21;11.30;;;3.20;;
72156;SDS011;60035;52.122;5.406;2024-02-21T04:20:52;12.07;;;4.00;;
72156;SDS011;60035;52.122;5.406;2024-02-21T04:23:24;14.95;;;4.70;;
72156;SDS011;60035;52.122;5.406;2024-02-21T04:25:57;14.40;;;3.78;;
72156;SDS011;60035;52.122;5.406;2024-02-21T04:28:29;14.32;;;4.45;;
72156;SDS011;60035;52.122;5.406;2024-02-21T04:31:00;8.52;;;3.58;;
72156;SDS011;60035;52.122;5.406;2024-02-21T04:33:32;12.82;;;4.22;;
72156;SDS011;60035;52.122;5.406;2024-02-21T04:36:04;12.27;;;3.40;;
72156;SDS011;60035;52.122;5.406;2024-02-21T04:38:35;10.55;;;3.85;;
72156;SDS011;60035;52.122;5.406;2024-02-21T04:41:10;11.50;;;3.70;;
72156;SDS011;60035;52.122;5.406;2024-02-21T04:43:42;10.13;;;3.78;;
72156;SDS011;60035;52.122;5.406;2024-02-21T04:46:13;9.35;;;3.90;;
72156;SDS011;60035;52.122;5.406;2024-02-21T04:48:45;12.35;;;3.47;;
72156;SDS011;60035;52.122;5.406;2024-02-21T04:51:16;12.68;;;4.35;;
72156;SDS011;60035;52.122;5.406;2024-02-21T04:53:48;9.38;;;3.50;;
72156;SDS011;60035;52.122;5.406;2024-02-21T04:56:21;10.93;;;4.20;;
72156;SDS011;60035;52.122;5.406;2024-02-21T04:58:53;13.50;;;4.35;;
72156;SDS011;60035;52.122;5.406;2024-02-21T05:01:25;11.80;;;4.40;;
72156;SDS011;60035;52.122;5.406;2024-02-21T05:03:56;12.32;;;3.80;;
72156;SDS011;60035;52.122;5.406;2024-02-21T05:06:28;10.40;;;4.22;;
72156;SDS011;60035;52.122;5.406;2024-02-21T05:08:59;9.10;;;3.80;;
72156;SDS011;60035;52.122;5.406;2024-02-21T05:11:33;14.75;;;3.90;;
72156;SDS011;60035;52.122;5.406;2024-02-21T05:14:05;14.50;;;3.72;;
72156;SDS011;60035;52.122;5.406;2024-02-21T05:16:36;10.68;;;4.40;;
72156;SDS011;60035;52.122;5.406;2024-02-21T05:19:09;13.02;;;4.10;;
72156;SDS011;60035;52.122;5.406;2024-02-21T05:21:41;11.93;;;3.80;;
72156;SDS011;60035;52.122;5.406;2024-02-21T05:24:12;11.38;;;4.40;;
72156;SDS011;60035;52.122;5.406;2024-02-21T05:26:46;10.48;;;4.47;;
72156;SDS011;60035;52.122;5.406;2024-02-21T05:29:18;14.45;;;4.55;;
72156;SDS011;60035;52.122;5.406;2024-02-21T05:31:55;12.88;;;4.50;;
72156;SDS011;60035;52.122;5.406;2024-02-21T05:34:27;13.43;;;3.67;;
72156;SDS011;60035;52.122;5.406;2024-02-21T05:36:59;12.40;;;4.07;;
72156;SDS011;60035;52.122;5.406;2024-02-21T05:39:30;13.40;;;4.25;;
72156;SDS011;60035;52.122;5.406;2024-02-21T05:42:05;10.02;;;4.38;;
72156;SDS011;60035;52.122;5.406;2024-02-21T05:44:36;10.48;;;4.43;;
72156;SDS011;60035;52.122;5.406;2024-02-21T05:47:08;10.88;;;4.32;;
72156;SDS011;60035;52.122;5.406;2024-02-21T05:49:42;13.98;;;4.60;;
72156;SDS011;60035;52.122;5.406;2024-02-21T05:52:14;10.80;;;4.03;;
72156;SDS011;60035;52.122;5.406;2024-02-21T05:54:45;10.43;;;4.18;;
72156;SDS011;60035;52.122;5.406;2024-02-21T05:57:20;12.77;;;4.53;;
72156;SDS011;60035;52.122;5.406;2024-02-21T05:59:51;12.73;;;4.85;;
72156;SDS011;60035;52.122;5.406;2024-02-21T06:02:23;12.48;;;4.45;;
72156;SDS011;60035;52.122;5.406;2024-02-21T06:04:54;12.68;;;4.78;;
72156;SDS011;60035;52.122;5.406;2024-02-21T06:07:25;10.90;;;4.32;;
72156;SDS011;60035;52.122;5.406;2024-02-21T06:09:57;13.07;;;5.55;;
72156;SDS011;60035;52.122;5.406;2024-02-21T06:12:31;11.85;;;4.63;;
72156;SDS011;60035;52.122;5.406;2024-02-21T06:15:03;15.20;;;5.50;;
72156;SDS011;60035;52.122;5.406;2024-02-21T06:17:34;13.07;;;5.00;;
72156;SDS011;60035;52.122;5.406;2024-02-21T06:20:06;15.90;;;5.45;;
72156;SDS011;60035;52.122;5.406;2024-02-21T06:22:39;16.73;;;5.38;;
72156;SDS011;60035;52.122;5.406;2024-02-21T06:25:11;13.82;;;5.53;;
72156;SDS011;60035;52.122;5.406;2024-02-21T06:27:45;12.88;;;4.88;;
72156;SDS011;60035;52.122;5.406;2024-02-21T06:30:16;14.55;;;5.40;;
72156;SDS011;60035;52.122;5.406;2024-02-21T06:32:47;15.18;;;5.93;;
72156;SDS011;60035;52.122;5.406;2024-02-21T06:35:19;20.05;;;6.82;;
72156;SDS011;60035;52.122;5.406;2024-02-21T06:37:52;15.98;;;6.07;;
72156;SDS011;60035;52.122;5.406;2024-02-21T06:40:23;16.55;;;6.57;;
72156;SDS011;60035;52.122;5.406;2024-02-21T06:42:57;16.83;;;6.10;;
72156;SDS011;60035;52.122;5.406;2024-02-21T06:45:29;15.82;;;6.80;;
72156;SDS011;60035;52.122;5.406;2024-02-21T06:48:00;16.00;;;6.53;;
72156;SDS011;60035;52.122;5.406;2024-02-21T06:50:32;17.35;;;6.80;;
72156;SDS011;60035;52.122;5.406;2024-02-21T06:53:04;19.10;;;7.43;;
72156;SDS011;60035;52.122;5.406;2024-02-21T06:55:35;21.40;;;7.40;;
72156;SDS011;60035;52.122;5.406;2024-02-21T06:58:09;20.27;;;7.80;;
72156;SDS011;60035;52.122;5.406;2024-02-21T07:00:43;22.30;;;7.65;;
72156;SDS011;60035;52.122;5.406;2024-02-21T07:03:14;18.25;;;7.13;;
72156;SDS011;60035;52.122;5.406;2024-02-21T07:05:45;17.90;;;8.15;;
72156;SDS011;60035;52.122;5.406;2024-02-21T07:08:17;20.35;;;7.50;;
72156;SDS011;60035;52.122;5.406;2024-02-21T07:10:49;25.40;;;7.85;;
72156;SDS011;60035;52.122;5.406;2024-02-21T07:13:23;17.92;;;6.75;;
72156;SDS011;60035;52.122;5.406;2024-02-21T07:15:54;23.67;;;7.28;;
72156;SDS011;60035;52.122;5.406;2024-02-21T07:18:26;19.83;;;7.60;;
72156;SDS011;60035;52.122;5.406;2024-02-21T07:20:57;21.60;;;7.68;;
72156;SDS011;60035;52.122;5.406;2024-02-21T07:23:29;21.08;;;7.72;;
72156;SDS011;60035;52.122;5.406;2024-02-21T07:26:00;18.42;;;6.82;;
72156;SDS011;60035;52.122;5.406;2024-02-21T07:28:34;21.52;;;7.68;;
72156;SDS011;60035;52.122;5.406;2024-02-21T07:31:06;21.10;;;5.90;;
72156;SDS011;60035;52.122;5.406;2024-02-21T07:33:37;19.42;;;6.15;;
72156;SDS011;60035;52.122;5.406;2024-02-21T07:36:09;19.20;;;6.25;;
72156;SDS011;60035;52.122;5.406;2024-02-21T07:38:45;19.13;;;6.38;;
72156;SDS011;60035;52.122;5.406;2024-02-21T07:41:21;16.38;;;5.95;;
72156;SDS011;60035;52.122;5.406;2024-02-21T07:43:55;15.15;;;5.13;;
72156;SDS011;60035;52.122;5.406;2024-02-21T07:46:26;16.75;;;5.57;;
72156;SDS011;60035;52.122;5.406;2024-02-21T07:48:58;18.13;;;6.25;;
72156;SDS011;60035;52.122;5.406;2024-02-21T07:51:32;18.48;;;5.35;;
72156;SDS011;60035;52.122;5.406;2024-02-21T07:54:03;22.02;;;5.93;;
72156;SDS011;60035;52.122;5.406;2024-02-21T07:56:38;16.85;;;5.97;;
72156;SDS011;60035;52.122;5.406;2024-02-21T07:59:12;16.83;;;6.03;;
72156;SDS011;60035;52.122;5.406;2024-02-21T08:01:43;16.25;;;5.90;;
72156;SDS011;60035;52.122;5.406;2024-02-21T08:04:15;19.60;;;5.40;;
72156;SDS011;60035;52.122;5.406;2024-02-21T08:06:50;14.15;;;5.82;;
72156;SDS011;60035;52.122;5.406;2024-02-21T08:09:23;17.13;;;6.05;;
72156;SDS011;60035;52.122;5.406;2024-02-21T08:11:54;16.80;;;6.30;;
72156;SDS011;60035;52.122;5.406;2024-02-21T08:14:29;16.50;;;5.30;;
72156;SDS011;60035;52.122;5.406;2024-02-21T08:17:00;34.13;;;8.55;;
72156;SDS011;60035;52.122;5.406;2024-02-21T08:19:31;16.58;;;4.88;;
72156;SDS011;60035;52.122;5.406;2024-02-21T08:22:03;14.10;;;5.40;;
72156;SDS011;60035;52.122;5.406;2024-02-21T08:24:34;17.80;;;5.65;;
72156;SDS011;60035;52.122;5.406;2024-02-21T08:27:06;16.30;;;5.50;;
72156;SDS011;60035;52.122;5.406;2024-02-21T08:29:39;17.60;;;5.57;;
72156;SDS011;60035;52.122;5.406;2024-02-21T08:32:11;16.13;;;5.40;;
72156;SDS011;60035;52.122;5.406;2024-02-21T08:34:43;17.35;;;6.22;;
72156;SDS011;60035;52.122;5.406;2024-02-21T08:37:14;18.95;;;6.03;;
72156;SDS011;60035;52.122;5.406;2024-02-21T08:39:48;18.73;;;6.05;;
72156;SDS011;60035;52.122;5.406;2024-02-21T08:42:20;17.38;;;6.03;;
72156;SDS011;60035;52.122;5.406;2024-02-21T08:44:54;18.17;;;6.65;;
72156;SDS011;60035;52.122;5.406;2024-02-21T08:47:25;18.75;;;6.75;;
72156;SDS011;60035;52.122;5.406;2024-02-21T08:49:56;20.70;;;6.78;;
72156;SDS011;60035;52.122;5.406;2024-02-21T08:52:44;19.95;;;6.50;;
72156;SDS011;60035;52.122;5.406;2024-02-21T08:55:15;16.10;;;6.00;;
72156;SDS011;60035;52.122;5.406;2024-02-21T08:57:47;18.23;;;5.95;;
72156;SDS011;60035;52.122;5.406;2024-02-21T09:00:21;17.30;;;6.22;;
72156;SDS011;60035;52.122;5.406;2024-02-21T09:02:55;13.45;;;5.97;;
72156;SDS011;60035;52.122;5.406;2024-02-21T09:05:26;16.25;;;5.85;;
72156;SDS011;60035;52.122;5.406;2024-02-21T09:07:58;16.73;;;5.38;;
72156;SDS011;60035;52.122;5.406;2024-02-21T09:10:29;17.00;;;5.18;;
72156;SDS011;60035;52.122;5.406;2024-02-21T09:13:01;13.73;;;5.47;;
72156;SDS011;60035;52.122;5.406;2024-02-21T09:15:35;13.85;;;5.10;;
72156;SDS011;60035;52.122;5.406;2024-02-21T09:18:06;15.55;;;5.72;;
72156;SDS011;60035;52.122;5.406;2024-02-21T09:20:38;14.23;;;5.00;;
72156;SDS011;60035;52.122;5.406;2024-02-21T09:23:09;15.65;;;4.75;;
72156;SDS011;60035;52.122;5.406;2024-02-21T09:25:41;14.82;;;5.75;;
72156;SDS011;60035;52.122;5.406;2024-02-21T09:28:13;17.42;;;5.38;;
72156;SDS011;60035;52.122;5.406;2024-02-21T09:30:47;14.25;;;4.60;;
72156;SDS011;60035;52.122;5.406;2024-02-21T09:33:18;18.40;;;4.53;;
72156;SDS011;60035;52.122;5.406;2024-02-21T09:35:58;23.45;;;5.32;;
72156;SDS011;60035;52.122;5.406;2024-02-21T09:38:32;14.40;;;5.53;;
72156;SDS011;60035;52.122;5.406;2024-02-21T09:41:07;12.82;;;4.45;;
72156;SDS011;60035;52.122;5.406;2024-02-21T09:43:52;12.73;;;4.75;;
72156;SDS011;60035;52.122;5.406;2024-02-21T09:46:28;15.13;;;4.50;;
72156;SDS011;60035;52.122;5.406;2024-02-21T09:49:17;11.95;;;4.88;;
72156;SDS011;60035;52.122;5.406;2024-02-21T09:52:02;12.68;;;4.57;;
72156;SDS011;60035;52.122;5.406;2024-02-21T09:54:34;13.27;;;4.38;;
72156;SDS011;60035;52.122;5.406;2024-02-21T09:57:06;12.82;;;4.07;;
72156;SDS011;60035;52.122;5.406;2024-02-21T09:59:38;13.80;;;4.80;;
72156;SDS011;60035;52.122;5.406;2024-02-21T10:02:13;12.43;;;4.50;;
72156;SDS011;60035;52.122;5.406;2024-02-21T10:04:45;11.38;;;4.40;;
72156;SDS011;60035;52.122;5.406;2024-02-21T10:07:18;13.93;;;4.40;;
72156;SDS011;60035;52.122;5.406;2024-02-21T10:09:59;14.48;;;4.90;;
72156;SDS011;60035;52.122;5.406;2024-02-21T10:12:31;12.23;;;4.28;;
72156;SDS011;60035;52.122;5.406;2024-02-21T10:15:03;11.82;;;4.28;;
72156;SDS011;60035;52.122;5.406;2024-02-21T10:17:38;12.57;;;4.88;;
72156;SDS011;60035;52.122;5.406;2024-02-21T10:20:09;12.52;;;4.00;;
72156;SDS011;60035;52.122;5.406;2024-02-21T10:22:42;11.27;;;4.28;;
72156;SDS011;60035;52.122;5.406;2024-02-21T10:25:14;11.45;;;4.80;;
72156;SDS011;60035;52.122;5.406;2024-02-21T10:27:46;15.93;;;3.85;;
72156;SDS011;60035;52.122;5.406;2024-02-21T10:30:19;8.48;;;3.78;;
72156;SDS011;60035;52.122;5.406;2024-02-21T10:32:53;10.05;;;4.30;;
72156;SDS011;60035;52.122;5.406;2024-02-21T10:35:26;10.80;;;3.30;;
72156;SDS011;60035;52.122;5.406;2024-02-21T10:37:58;10.48;;;3.70;;
72156;SDS011;60035;52.122;5.406;2024-02-21T10:40:31;11.18;;;3.47;;
72156;SDS011;60035;52.122;5.406;2024-02-21T10:43:02;9.75;;;3.28;;
72156;SDS011;60035;52.122;5.406;2024-02-21T10:45:34;10.18;;;3.08;;
72156;SDS011;60035;52.122;5.406;2024-02-21T10:48:11;9.07;;;3.30;;
72156;SDS011;60035;52.122;5.406;2024-02-21T10:50:47;15.23;;;3.72;;
72156;SDS011;60035;52.122;5.406;2024-02-21T10:53:35;8.90;;;3.20;;
72156;SDS011;60035;52.122;5.406;2024-02-21T10:56:18;9.10;;;3.22;;
72156;SDS011;60035;52.122;5.406;2024-02-21T10:58:53;8.13;;;3.10;;
72156;SDS011;60035;52.122;5.406;2024-02-21T11:01:25;8.35;;;2.83;;
72156;SDS011;60035;52.122;5.406;2024-02-21T11:04:02;7.85;;;3.22;;
72156;SDS011;60035;52.122;5.406;2024-02-21T11:06:36;8.48;;;2.95;;
72156;SDS011;60035;52.122;5.406;2024-02-21T11:09:10;9.73;;;2.80;;
72156;SDS011;60035;52.122;5.406;2024-02-21T11:11:43;8.10;;;3.38;;
72156;SDS011;60035;52.122;5.406;2024-02-21T11:14:17;8.25;;;3.28;;
72156;SDS011;60035;52.122;5.406;2024-02-21T11:16:49;10.55;;;3.50;;
72156;SDS011;60035;52.122;5.406;2024-02-21T11:19:24;8.75;;;4.13;;
72156;SDS011;60035;52.122;5.406;2024-02-21T11:21:59;9.13;;;3.58;;
72156;SDS011;60035;52.122;5.406;2024-02-21T11:24:32;10.88;;;3.53;;
72156;SDS011;60035;52.122;5.406;2024-02-21T11:27:08;9.50;;;3.53;;
72156;SDS011;60035;52.122;5.406;2024-02-21T11:29:40;9.02;;;3.45;;
72156;SDS011;60035;52.122;5.406;2024-02-21T11:32:14;10.50;;;3.58;;
72156;SDS011;60035;52.122;5.406;2024-02-21T11:34:56;10.68;;;4.22;;
72156;SDS011;60035;52.122;5.406;2024-02-21T11:37:30;11.30;;;3.80;;
72156;SDS011;60035;52.122;5.406;2024-02-21T11:40:05;9.10;;;3.67;;
72156;SDS011;60035;52.122;5.406;2024-02-21T11:42:39;8.95;;;3.78;;
72156;SDS011;60035;52.122;5.406;2024-02-21T11:45:11;11.15;;;4.07;;
72156;SDS011;60035;52.122;5.406;2024-02-21T11:47:47;16.85;;;4.45;;
72156;SDS011;60035;52.122;5.406;2024-02-21T11:50:22;9.35;;;3.67;;
72156;SDS011;60035;52.122;5.406;2024-02-21T11:52:54;11.55;;;4.57;;
72156;SDS011;60035;52.122;5.406;2024-02-21T11:55:25;9.27;;;3.80;;
72156;SDS011;60035;52.122;5.406;2024-02-21T11:57:57;10.90;;;4.72;;
72156;SDS011;60035;52.122;5.406;2024-02-21T12:00:28;11.65;;;4.35;;
72156;SDS011;60035;52.122;5.406;2024-02-21T12:03:01;11.98;;;3.85;;
72156;SDS011;60035;52.122;5.406;2024-02-21T12:05:37;10.30;;;4.07;;
72156;SDS011;60035;52.122;5.406;2024-02-21T12:08:08;12.15;;;4.07;;
72156;SDS011;60035;52.122;5.406;2024-02-21T12:10:41;12.52;;;4.25;;
72156;SDS011;60035;52.122;5.406;2024-02-21T12:13:19;12.60;;;4.90;;
72156;SDS011;60035;52.122;5.406;2024-02-21T12:15:54;19.33;;;4.68;;
72156;SDS011;60035;52.122;5.406;2024-02-21T12:18:25;11.68;;;4.50;;
72156;SDS011;60035;52.122;5.406;2024-02-21T12:21:00;11.25;;;3.75;;
72156;SDS011;60035;52.122;5.406;2024-02-21T12:23:31;22.10;;;5.38;;
72156;SDS011;60035;52.122;5.406;2024-02-21T12:26:03;10.65;;;4.25;;
72156;SDS011;60035;52.122;5.406;2024-02-21T12:28:35;13.32;;;4.90;;
72156;SDS011;60035;52.122;5.406;2024-02-21T12:31:07;10.80;;;4.30;;
72156;SDS011;60035;52.122;5.406;2024-02-21T12:33:38;11.95;;;3.90;;
72156;SDS011;60035;52.122;5.406;2024-02-21T12:36:12;9.20;;;3.65;;
72156;SDS011;60035;52.122;5.406;2024-02-21T12:38:44;11.55;;;4.70;;
72156;SDS011;60035;52.122;5.406;2024-02-21T12:41:16;10.30;;;4.15;;
72156;SDS011;60035;52.122;5.406;2024-02-21T12:43:47;10.40;;;3.88;;
72156;SDS011;60035;52.122;5.406;2024-02-21T12:46:18;9.98;;;3.83;;
72156;SDS011;60035;52.122;5.406;2024-02-21T12:48:50;12.27;;;3.67;;
72156;SDS011;60035;52.122;5.406;2024-02-21T12:51:24;11.93;;;4.57;;
72156;SDS011;60035;52.122;5.406;2024-02-21T12:53:55;9.88;;;4.05;;
72156;SDS011;60035;52.122;5.406;2024-02-21T12:56:27;11.57;;;3.45;;
72156;SDS011;60035;52.122;5.406;2024-02-21T12:58:58;9.68;;;3.67;;
72156;SDS011;60035;52.122;5.406;2024-02-21T13:01:30;8.40;;;3.53;;
72156;SDS011;60035;52.122;5.406;2024-02-21T13:04:01;12.18;;;3.58;;
72156;SDS011;60035;52.122;5.406;2024-02-21T13:06:35;7.90;;;3.55;;
72156;SDS011;60035;52.122;5.406;2024-02-21T13:09:07;9.88;;;3.58;;
72156;SDS011;60035;52.122;5.406;2024-02-21T13:11:41;9.98;;;3.13;;
72156;SDS011;60035;52.122;5.406;2024-02-21T13:14:14;9.60;;;3.28;;
72156;SDS011;60035;52.122;5.406;2024-02-21T13:16:45;8.45;;;3.15;;
72156;SDS011;60035;52.122;5.406;2024-02-21T13:19:17;9.55;;;3.33;;
72156;SDS011;60035;52.122;5.406;2024-02-21T13:21:51;10.63;;;3.70;;
72156;SDS011;60035;52.122;5.406;2024-02-21T13:24:22;10.15;;;3.15;;
72156;SDS011;60035;52.122;5.406;2024-02-21T13:26:53;8.75;;;3.10;;
72156;SDS011;60035;52.122;5.406;2024-02-21T13:29:25;8.85;;;3.35;;
72156;SDS011;60035;52.122;5.406;2024-02-21T13:31:56;8.98;;;3.58;;
72156;SDS011;60035;52.122;5.406;2024-02-21T13:34:28;8.85;;;3.15;;
72156;SDS011;60035;52.122;5.406;2024-02-21T13:37:02;7.95;;;2.78;;
72156;SDS011;60035;52.122;5.406;2024-02-21T13:39:37;9.65;;;2.72;;
72156;SDS011;60035;52.122;5.406;2024-02-21T13:42:08;11.43;;;3.35;;
72156;SDS011;60035;52.122;5.406;2024-02-21T13:44:41;11.63;;;3.20;;
72156;SDS011;60035;52.122;5.406;2024-02-21T13:47:13;10.93;;;2.90;;
72156;SDS011;60035;52.122;5.406;2024-02-21T13:49:45;10.38;;;3.33;;
72156;SDS011;60035;52.122;5.406;2024-02-21T13:52:19;11.55;;;2.95;;
72156;SDS011;60035;52.122;5.406;2024-02-21T13:54:53;13.90;;;3.33;;
72156;SDS011;60035;52.122;5.406;2024-02-21T13:57:24;8.07;;;2.88;;
72156;SDS011;60035;52.122;5.406;2024-02-21T13:59:56;7.15;;;2.65;;
72156;SDS011;60035;52.122;5.406;2024-02-21T14:02:27;14.48;;;3.60;;
72156;SDS011;60035;52.122;5.406;2024-02-21T14:04:59;7.35;;;2.88;;
72156;SDS011;60035;52.122;5.406;2024-02-21T14:07:35;9.27;;;3.08;;
72156;SDS011;60035;52.122;5.406;2024-02-21T14:10:07;11.70;;;3.22;;
72156;SDS011;60035;52.122;5.406;2024-02-21T14:12:39;9.27;;;2.90;;
72156;SDS011;60035;52.122;5.406;2024-02-21T14:15:11;10.48;;;2.97;;
72156;SDS011;60035;52.122;5.406;2024-02-21T14:17:43;7.18;;;3.15;;
72156;SDS011;60035;52.122;5.406;2024-02-21T14:20:15;9.05;;;3.63;;
72156;SDS011;60035;52.122;5.406;2024-02-21T14:22:49;12.18;;;2.75;;
72156;SDS011;60035;52.122;5.406;2024-02-21T14:25:20;11.52;;;2.72;;
72156;SDS011;60035;52.122;5.406;2024-02-21T14:27:52;9.25;;;2.97;;
72156;SDS011;60035;52.122;5.406;2024-02-21T14:30:23;8.68;;;2.45;;
72156;SDS011;60035;52.122;5.406;2024-02-21T14:32:55;7.55;;;2.60;;
72156;SDS011;60035;52.122;5.406;2024-02-21T14:35:27;11.23;;;2.67;;
72156;SDS011;60035;52.122;5.406;2024-02-21T14:38:01;8.18;;;2.33;;
72156;SDS011;60035;52.122;5.406;2024-02-21T14:40:33;10.23;;;2.53;;
72156;SDS011;60035;52.122;5.406;2024-02-21T14:43:04;8.77;;;2.63;;
72156;SDS011;60035;52.122;5.406;2024-02-21T14:45:36;9.20;;;2.60;;
72156;SDS011;60035;52.122;5.406;2024-02-21T14:48:07;7.70;;;2.75;;
72156;SDS011;60035;52.122;5.406;2024-02-21T14:50:39;6.00;;;2.50;;
72156;SDS011;60035;52.122;5.406;2024-02-21T14:53:13;7.25;;;2.40;;
72156;SDS011;60035;52.122;5.406;2024-02-21T14:55:45;8.00;;;2.80;;
72156;SDS011;60035;52.122;5.406;2024-02-21T14:58:17;7.35;;;2.42;;
72156;SDS011;60035;52.122;5.406;2024-02-21T15:00:48;9.48;;;2.53;;
72156;SDS011;60035;52.122;5.406;2024-02-21T15:03:21;7.90;;;2.13;;
72156;SDS011;60035;52.122;5.406;2024-02-21T15:05:55;8.63;;;2.78;;
72156;SDS011;60035;52.122;5.406;2024-02-21T15:08:29;10.23;;;2.92;;
72156;SDS011;60035;52.122;5.406;2024-02-21T15:11:00;8.63;;;2.83;;